Sky Ranch, South Dakota
Current Conditions -  °F | °C
As of 3:51 PM on Wednesday 22 Oct 2014 (Local Time) from KBHK Reporting Station
Clear Clear  
Wind Chill: 61°   Ceiling: Unl
Heat Index: 61°   Visibility: 10mi
Dew Point: 30°   Wind: 16mph
Humidity: 31%   Direction: 280°W
Pressure: 29.93"   Gusts: NA
Location:  45.6592°N, 103.944°W
Report Text: KBHK 222151Z AUTO 28014KT 10SM CLR 16/M01 A2993 RMK AO2 PK WND 29028/2108 SLP129 T01611011
Loading
Personal Weather Stations






























Interactive Weather Map
Tropical Storm Tracking
New forecast layout! Learn more

10-Day Weather Forecast

Advertisements
Track Severe Weather on mobile